FW9028 Weather Reports


time (UTC)temp
F
wind
direction
speed
knots
gust
knots
rain 1hr
in
rain 24hr
in
rain mn
in
humidity
%
barometer
mb
20260505211541 82 102 6.1 8.7 0.00 0.00 0.00 83 1010.1
20260505211041 82 120 4.3 5.2 0.00 0.00 0.00 83 1010.3
20260505210541 81 118 3.5 5.2 0.00 0.00 0.00 84 1010.3
20260505210041 81 131 3.5 5.2 0.00 0.00 0.00 85 1010.1
20260505205541 81 157 0.9 5.2 0.00 0.00 0.00 86 1010.2
20260505205041 81 192 1.7 5.2 0.00 0.00 0.00 86 1010.0
20260505204040 81 152 0.9 6.1 0.00 0.00 0.00 86 1010.0
20260505203542 81 135 3.5 9.6 0.00 0.00 0.00 86 1010.0
20260505203041 81 122 6.1 9.6 0.00 0.00 0.00 86 1009.8
20260505202541 81 139 3.5 7.8 0.00 0.00 0.00 86 1009.8
20260505202041 81 101 3.5 8.7 0.00 0.00 0.00 87 1009.9
20260505201541 81 177 2.6 8.7 0.00 0.00 0.00 87 1010.0
20260505201041 81 137 4.3 8.7 0.00 0.00 0.00 87 1009.8
20260505200540 81 140 2.6 8.7 0.00 0.00 0.00 87 1009.8
20260505200042 82 125 7.8 9.6 0.00 0.00 0.00 87 1009.9
20260505195541 81 148 3.5 9.6 0.00 0.00 0.00 86 1009.9
20260505195041 81 201 1.7 12.2 0.00 0.00 0.00 87 1009.8
20260505194041 81 140 2.6 8.7 0.00 0.00 0.00 88 1009.7
20260505193541 81 134 2.6 8.7 0.00 0.00 0.00 88 1009.8
20260505193041 81 132 2.6 7.8 0.00 0.00 0.00 89 1009.7
20260505192041 80 134 3.5 8.7 0.00 0.00 0.00 89 1009.4
20260505191541 80 154 3.5 8.7 0.00 0.00 0.00 89 1009.5
20260505191041 80 167 2.6 7.8 0.00 0.00 0.00 88 1009.2
20260505190541 80 166 3.5 7.8 0.00 0.00 0.00 88 1009.5
20260505190041 80 120 5.2 7.8 0.00 0.00 0.00 88 1009.4
20260505185541 80 149 3.5 8.7 0.00 0.00 0.00 88 1009.4
20260505185041 80 109 2.6 8.7 0.00 0.00 0.00 87 1009.5
20260505184541 80 180 2.6 9.6 0.00 0.00 0.00 86 1009.5
20260505184041 81 140 4.3 9.6 0.00 0.00 0.00 85 1009.7
20260505183542 81 134 3.5 8.7 0.00 0.00 0.00 84 1009.6
20260505183041 81 137 7.0 9.6 0.00 0.00 0.00 84 1009.4
20260505182541 81 134 6.1 9.6 0.00 0.00 0.00 84 1009.6
20260505182042 81 152 3.5 9.6 0.00 0.00 0.00 84 1009.6
20260505181541 81 146 3.5 9.6 0.00 0.00 0.00 84 1009.5
20260505180541 81 170 4.3 9.6 0.00 0.00 0.00 84 1009.8
20260505180041 81 159 2.6 9.6 0.00 0.00 0.00 84 1010.0
20260505175541 80 189 2.6 11.3 0.00 0.00 0.00 85 1009.8
20260505175041 80 155 7.8 11.3 0.00 0.00 0.00 86 1010.0
20260505174541 80 141 7.8 10.4 0.00 0.00 0.00 88 1010.1
20260505174042 80 176 1.7 12.2 0.00 0.00 0.00 89 1010.0
20260505173542 81 137 3.5 12.2 0.00 0.00 0.00 88 1010.4
20260505173043 81 150 3.5 11.3 0.00 0.00 0.00 88 1010.3
20260505172541 81 164 5.2 11.3 0.00 0.00 0.00 87 1010.4
20260505172041 82 118 7.0 11.3 0.00 0.00 0.00 86 1010.6
20260505171541 82 204 3.5 10.4 0.00 0.00 0.00 86 1010.6
20260505171041 82 135 2.6 10.4 0.00 0.00 0.00 84 1010.6
20260505170541 82 104 3.5 9.6 0.00 0.00 0.00 84 1010.7
20260505170041 82 145 1.7 9.6 0.00 0.00 0.00 86 1010.5
20260505165541 81 120 7.0 9.6 0.00 0.00 0.00 88 1010.5
20260505165041 81 135 7.0 11.3 0.00 0.00 0.00 89 1010.3
20260505164541 81 113 5.2 11.3 0.00 0.00 0.00 89 1010.7
20260505164041 81 161 3.5 12.2 0.00 0.00 0.00 89 1010.7
20260505163541 81 146 2.6 13.0 0.00 0.00 0.00 89 1010.5
20260505163041 81 116 3.5 14.8 0.00 0.00 0.00 88 1010.6
20260505162540 81 168 1.7 14.8 0.00 0.00 0.00 89 1010.7
20260505162041 82 130 7.8 13.0 0.00 0.00 0.00 88 1010.7
20260505161541 82 179 1.7 13.0 0.00 0.00 0.00 88 1010.8
20260505161041 82 155 5.2 11.3 0.00 0.00 0.00 87 1010.6
20260505160541 82 149 6.1 11.3 0.00 0.00 0.00 87 1010.7
20260505152541 84 102 4.3 13.0 0.00 0.00 0.00 75 1011.0
20260505152041 84 113 5.2 11.3 0.00 0.00 0.00 75 1011.1
20260505151541 84 136 7.0 13.0 0.00 0.00 0.00 75 1011.2
20260505150541 84 143 7.0 11.3 0.00 0.00 0.00 75 1011.2
20260505125042 85 149 3.5 11.3 0.00 0.00 0.00 67 1010.5
20260505124041 85 184 1.7 10.4 0.00 0.00 0.00 68 1010.8
20260505123541 85 141 6.1 9.6 0.00 0.00 0.00 67 1010.8
20260505123041 85 125 2.6 9.6 0.00 0.00 0.00 67 1010.7
20260505122541 85 131 5.2 9.6 0.00 0.00 0.00 67 1010.7
20260505122041 85 111 4.3 13.0 0.00 0.00 0.00 67 1010.7
20260505121541 86 135 4.3 13.0 0.00 0.00 0.00 66 1010.6
20260505121042 86 112 5.2 9.6 0.00 0.00 0.00 66 1010.6
20260505120041 85 94 4.3 10.4 0.00 0.00 0.00 67 1010.3
20260505115541 86 142 4.3 11.3 0.00 0.00 0.00 68 1010.6
20260505114541 86 130 1.7 13.0 0.00 0.00 0.00 69 1009.9
20260505114041 86 140 6.1 13.0 0.00 0.00 0.00 70 1009.9
20260505113041 85 94 7.8 11.3 0.00 0.00 0.00 72 1009.8
20260505112541 86 155 1.7 10.4 0.00 0.00 0.00 72 1009.7
20260505112042 86 96 9.6 11.3 0.00 0.00 0.00 72 1009.5
20260505111542 86 112 5.2 13.9 0.00 0.00 0.00 72 1009.5
20260505111041 86 98 5.2 13.9 0.00 0.00 0.00 71 1009.9
20260505102042 87 120 12.2 13.9 0.00 0.00 0.00 71 1009.4
20260505101541 87 115 6.1 13.9 0.00 0.00 0.00 71 1009.4
20260505101040 87 95 9.6 15.6 0.00 0.00 0.00 70 1009.2
20260505100541 87 94 15.6 15.6 0.00 0.00 0.00 70 1009.1
20260505100041 87 100 1.7 14.8 0.00 0.00 0.00 69 1009.2
20260505095541 87 91 5.2 14.8 0.00 0.00 0.00 70 1009.3
20260505094541 88 97 5.2 13.0 0.00 0.00 0.00 69 1009.0
20260505094041 88 87 7.0 13.0 0.00 0.00 0.00 69 1009.1
20260505093541 88 114 3.5 11.3 0.00 0.00 0.00 68 1008.8
20260505093041 88 104 2.6 11.3 0.00 0.00 0.00 68 1008.8
20260505092541 89 114 5.2 12.2 0.00 0.00 0.00 68 1008.8
20260505092041 89 160 4.3 13.0 0.00 0.00 0.00 68 1008.8
20260505091541 89 56 6.1 13.9 0.00 0.00 0.00 68 1008.5
20260505090541 89 175 2.6 11.3 0.00 0.00 0.00 67 1008.5
20260505090042 89 137 2.6 12.2 0.00 0.00 0.00 67 1008.4
20260505085542 89 107 9.6 12.2 0.00 0.00 0.00 66 1008.5
20260505085041 89 129 3.5 12.2 0.00 0.00 0.00 67 1008.3
20260505084540 89 109 6.1 11.3 0.00 0.00 0.00 66 1008.5
20260505084041 90 118 3.5 8.7 0.00 0.00 0.00 66 1008.5
20260505083541 90 126 7.0 13.0 0.00 0.00 0.00 66 1008.5
20260505083041 90 100 4.3 13.0 0.00 0.00 0.00 65 1008.4
20260505082541 90 125 7.8 14.8 0.00 0.00 0.00 65 1008.5
20260505082041 90 136 4.3 14.8 0.00 0.00 0.00 64 1008.6
20260505081041 90 104 12.2 16.5 0.00 0.00 0.00 64 1008.5
20260505080541 91 131 6.1 16.5 0.00 0.00 0.00 63 1008.3
20260505080042 91 88 4.3 16.5 0.00 0.00 0.00 63 1008.4
20260505075541 91 107 3.5 16.5 0.00 0.00 0.00 63 1008.2
20260505074541 92 140 4.3 14.8 0.00 0.00 0.00 63 1008.4
20260505074041 93 99 5.2 13.9 0.00 0.00 0.00 60 1008.1
20260505073541 92 82 3.5 14.8 0.00 0.00 0.00 59 1008.2
20260505073041 92 120 8.7 14.8 0.00 0.00 0.00 57 1008.2
20260505072541 93 85 1.7 15.6 0.00 0.00 0.00 57 1008.1
20260505072041 93 112 4.3 15.6 0.00 0.00 0.00 59 1008.2
20260505071541 93 133 7.0 13.9 0.00 0.00 0.00 59 1008.3
20260505071041 93 80 3.5 12.2 0.00 0.00 0.00 59 1008.5
20260505070542 92 108 4.3 13.0 0.00 0.00 0.00 60 1008.3
20260505070041 92 144 5.2 13.0 0.00 0.00 0.00 59 1008.3
20260505065541 92 83 4.3 12.2 0.00 0.00 0.00 60 1008.4
20260505065041 92 91 9.6 12.2 0.00 0.00 0.00 60 1008.4
20260505064542 92 96 5.2 12.2 0.00 0.00 0.00 59 1008.5
20260505064041 93 104 4.3 13.0 0.00 0.00 0.00 58 1008.4
20260505063541 92 140 6.1 14.8 0.00 0.00 0.00 60 1008.6
20260505063041 91 82 3.5 14.8 0.00 0.00 0.00 62 1008.6
20260505062541 92 84 4.3 14.8 0.00 0.00 0.00 61 1008.6
20260505062041 92 116 6.1 14.8 0.00 0.00 0.00 61 1008.6
20260505061541 92 126 6.1 12.2 0.00 0.00 0.00 61 1008.7
20260505060541 91 133 5.2 17.4 0.00 0.00 0.00 62 1008.8
20260505060041 92 126 9.6 16.5 0.00 0.00 0.00 61 1008.8
20260505055041 92 103 9.6 14.8 0.00 0.00 0.00 62 1009.0
20260505054541 91 102 7.0 14.8 0.00 0.00 0.00 62 1009.0
20260505054041 91 117 9.6 18.2 0.00 0.00 0.00 62 1009.3
20260505053540 91 104 12.2 18.2 0.00 0.00 0.00 62 1009.2
20260505053041 92 115 7.0 15.6 0.00 0.00 0.00 60 1009.3
20260505052541 93 97 7.0 13.9 0.00 0.00 0.00 61 1009.3
20260505052041 92 94 6.1 12.2 0.00 0.00 0.00 61 1009.3
20260505051541 92 98 8.7 14.8 0.00 0.00 0.00 61 1009.5
20260505051041 91 160 5.2 15.6 0.00 0.00 0.00 62 1009.4
20260505050541 90 101 12.2 15.6 0.00 0.00 0.00 63 1009.4
20260505041541 90 133 3.5 16.5 0.00 0.00 0.00 64 1010.2
20260505041041 91 84 9.6 16.5 0.00 0.00 0.00 64 1010.2
20260505040541 91 101 7.0 16.5 0.00 0.00 0.00 62 1010.6
20260505035541 91 118 3.5 15.6 0.00 0.00 0.00 61 1010.1
20260505035041 91 148 3.5 15.6 0.00 0.00 0.00 62 1010.4
20260505034541 91 110 9.6 13.9 0.00 0.00 0.00 61 1010.4
20260505034041 90 70 6.1 16.5 0.00 0.00 0.00 61 1010.5
20260505033541 91 94 7.0 16.5 0.00 0.00 0.00 61 1010.4
20260505033041 91 114 11.3 13.0 0.00 0.00 0.00 59 1010.6
20260505032541 90 120 5.2 12.2 0.00 0.00 0.00 61 1010.8
20260505032041 91 111 3.5 13.0 0.00 0.00 0.00 62 1010.8
20260505031541 91 138 10.4 15.6 0.00 0.00 0.00 61 1010.8
20260505031041 90 97 7.8 20.0 0.00 0.00 0.00 62 1010.8
20260505030541 90 102 3.5 20.0 0.00 0.00 0.00 63 1010.8
20260505030041 91 104 5.2 13.0 0.00 0.00 0.00 61 1010.8
20260505025541 91 101 5.2 13.9 0.00 0.00 0.00 61 1010.8
20260505025041 90 140 4.3 15.6 0.00 0.00 0.00 63 1011.1
20260505024541 90 92 9.6 15.6 0.00 0.00 0.00 61 1010.9
20260505024041 90 64 5.2 14.8 0.00 0.00 0.00 63 1010.9
20260505023041 89 103 6.1 13.9 0.00 0.00 0.00 66 1011.2
20260505022541 89 101 7.8 13.9 0.00 0.00 0.00 66 1011.1
20260505021541 89 151 4.3 13.0 0.00 0.00 0.00 67 1011.2
20260505021041 88 99 8.7 14.8 0.00 0.00 0.00 66 1011.4
20260505020041 89 101 10.4 13.9 0.00 0.00 0.00 65 1011.4
20260505015541 89 87 5.2 14.8 0.00 0.00 0.00 64 1011.4
20260505015041 88 98 5.2 15.6 0.00 0.00 0.00 64 1011.5
20260505014541 88 127 12.2 15.6 0.00 0.00 0.00 64 1011.5
20260505014041 89 101 12.2 15.6 0.00 0.00 0.00 63 1011.7
20260505013041 89 92 7.8 11.3 0.00 0.00 0.00 66 1011.6
20260505012541 89 82 3.5 8.7 0.00 0.00 0.00 66 1011.7
20260505012042 89 104 7.0 7.8 0.00 0.00 0.00 65 1011.7
20260505011542 88 110 2.6 7.8 0.00 0.00 0.00 67 1011.4
20260505011041 88 91 7.8 12.2 0.00 0.00 0.00 66 1011.6
20260505010041 87 128 2.6 10.4 0.00 0.00 0.00 68 1011.5
20260505005541 87 145 2.6 10.4 0.00 0.00 0.00 68 1011.3
20260505004542 87 75 1.7 9.6 0.00 0.00 0.00 69 1011.4
20260505004041 88 108 7.0 8.7 0.00 0.00 0.00 67 1011.5
20260505003541 87 120 5.2 8.7 0.00 0.00 0.00 69 1011.7
20260505002541 87 39 3.5 9.6 0.00 0.00 0.00 69 1011.7
20260505001541 86 96 7.0 12.2 0.00 0.00 0.00 70 1011.5
20260505001041 86 96 8.7 12.2 0.00 0.00 0.00 70 1011.5
20260505000542 86 101 5.2 10.4 0.00 0.00 0.00 70 1011.6
20260505000041 86 96 5.2 9.6 0.00 0.00 0.00 70 1011.7
20260504235042 86 117 4.3 10.4 0.00 0.00 0.00 70 1011.7
20260504234541 86 98 1.7 10.4 0.00 0.00 0.00 70 1011.7
20260504234041 87 97 3.5 8.7 0.00 0.00 0.00 70 1011.8
20260504233041 86 167 2.6 8.7 0.00 0.00 0.00 71 1011.8
20260504232541 86 103 7.0 8.7 0.00 0.00 0.00 71 1012.0
20260504232042 85 89 3.5 11.3 0.00 0.00 0.00 71 1011.7
20260504231541 85 101 10.4 11.3 0.00 0.00 0.00 71 1011.5
20260504231041 85 76 4.3 9.6 0.00 0.00 0.00 71 1011.6
20260504230041 85 111 7.8 8.7 0.00 0.00 0.00 71 1011.2
20260504225041 84 105 1.7 7.8 0.00 0.00 0.00 72 1011.4
20260504224541 84 140 3.5 7.8 0.00 0.00 0.00 73 1011.3
20260504224041 84 70 3.5 7.8 0.00 0.00 0.00 72 1011.3
20260504223543 84 75 2.6 10.4 0.00 0.00 0.00 73 1011.2
20260504223041 84 103 6.1 10.4 0.00 0.00 0.00 73 1011.1
20260504222541 83 114 7.0 7.8 0.00 0.00 0.00 73 1011.0
20260504222041 83 101 2.6 7.8 0.00 0.00 0.00 74 1011.1
20260504221542 83 121 2.6 7.8 0.00 0.00 0.00 75 1011.1
20260504221041 83 101 3.5 7.0 0.00 0.00 0.00 75 1010.9
20260504220541 83 139 1.7 7.8 0.00 0.00 0.00 75 1011.0
20260504215541 82 102 5.2 9.6 0.00 0.00 0.00 76 1011.0
20260504215042 82 118 1.7 7.0 0.00 0.00 0.00 77 1011.1
20260504214541 82 110 1.7 5.2 0.00 0.00 0.00 77 1010.9
20260504214041 81 107 3.5 6.1 0.00 0.00 0.00 77 1010.9
20260504213041 82 115 2.6 7.0 0.00 0.00 0.00 77 1011.0
20260504212541 82 145 3.5 7.0 0.00 0.00 0.00 76 1010.9
20260504212041 82 125 3.5 7.0 0.00 0.00 0.00 77 1010.8